sensor_id;sensor_type;location;lat;lon;timestamp;temperature;humidity
52024;DHT22;38038;45.922;13.604;2023-09-19T00:01:28;21.30;99.90
52024;DHT22;38038;45.922;13.604;2023-09-19T00:03:57;21.30;99.90
52024;DHT22;38038;45.922;13.604;2023-09-19T00:06:24;21.30;99.90
52024;DHT22;38038;45.922;13.604;2023-09-19T00:08:51;21.20;99.90
52024;DHT22;38038;45.922;13.604;2023-09-19T00:11:17;21.20;99.90
52024;DHT22;38038;45.922;13.604;2023-09-19T00:13:43;21.10;99.90
52024;DHT22;38038;45.922;13.604;2023-09-19T00:16:10;21.20;99.90
52024;DHT22;38038;45.922;13.604;2023-09-19T00:18:39;21.30;99.90
52024;DHT22;38038;45.922;13.604;2023-09-19T00:21:05;21.20;99.90
52024;DHT22;38038;45.922;13.604;2023-09-19T00:23:31;21.40;99.90
52024;DHT22;38038;45.922;13.604;2023-09-19T00:26:00;21.40;99.90
52024;DHT22;38038;45.922;13.604;2023-09-19T00:28:26;21.40;99.90
52024;DHT22;38038;45.922;13.604;2023-09-19T00:30:52;21.40;99.90
52024;DHT22;38038;45.922;13.604;2023-09-19T00:33:20;21.40;99.90
52024;DHT22;38038;45.922;13.604;2023-09-19T00:35:53;21.40;99.90
52024;DHT22;38038;45.922;13.604;2023-09-19T00:38:20;21.30;99.90
52024;DHT22;38038;45.922;13.604;2023-09-19T00:40:47;21.30;99.90
52024;DHT22;38038;45.922;13.604;2023-09-19T00:43:13;21.30;99.90
52024;DHT22;38038;45.922;13.604;2023-09-19T00:45:43;21.30;99.90
52024;DHT22;38038;45.922;13.604;2023-09-19T00:48:09;21.30;99.90
52024;DHT22;38038;45.922;13.604;2023-09-19T00:50:36;21.40;99.90
52024;DHT22;38038;45.922;13.604;2023-09-19T00:53:02;21.40;99.90
52024;DHT22;38038;45.922;13.604;2023-09-19T00:55:34;21.40;99.90
52024;DHT22;38038;45.922;13.604;2023-09-19T00:58:00;21.40;99.90
52024;DHT22;38038;45.922;13.604;2023-09-19T01:00:26;21.40;99.90
52024;DHT22;38038;45.922;13.604;2023-09-19T01:02:52;21.50;99.90
52024;DHT22;38038;45.922;13.604;2023-09-19T01:05:18;21.50;99.90
52024;DHT22;38038;45.922;13.604;2023-09-19T01:07:44;21.30;99.90
52024;DHT22;38038;45.922;13.604;2023-09-19T01:10:12;21.20;99.90
52024;DHT22;38038;45.922;13.604;2023-09-19T01:15:14;21.20;99.90
52024;DHT22;38038;45.922;13.604;2023-09-19T01:17:57;21.20;99.90
52024;DHT22;38038;45.922;13.604;2023-09-19T01:23:08;21.30;99.90
52024;DHT22;38038;45.922;13.604;2023-09-19T01:30:57;21.30;99.90
52024;DHT22;38038;45.922;13.604;2023-09-19T01:33:26;21.40;99.90
52024;DHT22;38038;45.922;13.604;2023-09-19T01:35:52;21.30;99.90
52024;DHT22;38038;45.922;13.604;2023-09-19T01:38:24;21.30;99.90
52024;DHT22;38038;45.922;13.604;2023-09-19T01:40:58;21.40;99.90
52024;DHT22;38038;45.922;13.604;2023-09-19T01:43:40;21.40;99.90
52024;DHT22;38038;45.922;13.604;2023-09-19T01:51:42;21.40;99.90
52024;DHT22;38038;45.922;13.604;2023-09-19T01:54:12;21.30;99.90
52024;DHT22;38038;45.922;13.604;2023-09-19T01:57:01;21.30;99.90
52024;DHT22;38038;45.922;13.604;2023-09-19T01:59:36;21.40;99.90
52024;DHT22;38038;45.922;13.604;2023-09-19T02:02:04;21.30;99.90
52024;DHT22;38038;45.922;13.604;2023-09-19T02:04:33;21.30;99.90
52024;DHT22;38038;45.922;13.604;2023-09-19T02:07:00;21.30;99.90
52024;DHT22;38038;45.922;13.604;2023-09-19T02:09:26;21.20;99.90
52024;DHT22;38038;45.922;13.604;2023-09-19T02:11:52;21.20;99.90
52024;DHT22;38038;45.922;13.604;2023-09-19T02:14:18;21.30;99.90
52024;DHT22;38038;45.922;13.604;2023-09-19T02:16:45;21.30;99.90
52024;DHT22;38038;45.922;13.604;2023-09-19T02:19:11;21.20;99.90
52024;DHT22;38038;45.922;13.604;2023-09-19T02:21:37;21.20;99.90
52024;DHT22;38038;45.922;13.604;2023-09-19T02:24:05;21.20;99.90
52024;DHT22;38038;45.922;13.604;2023-09-19T02:26:34;21.30;99.90
52024;DHT22;38038;45.922;13.604;2023-09-19T02:29:02;21.30;99.90
52024;DHT22;38038;45.922;13.604;2023-09-19T02:31:30;21.30;99.90
52024;DHT22;38038;45.922;13.604;2023-09-19T02:33:56;21.30;99.90
52024;DHT22;38038;45.922;13.604;2023-09-19T02:36:22;21.30;99.90
52024;DHT22;38038;45.922;13.604;2023-09-19T02:38:49;21.30;99.90
52024;DHT22;38038;45.922;13.604;2023-09-19T02:41:15;21.30;99.90
52024;DHT22;38038;45.922;13.604;2023-09-19T02:43:41;21.30;99.90
52024;DHT22;38038;45.922;13.604;2023-09-19T02:46:09;21.30;99.90
52024;DHT22;38038;45.922;13.604;2023-09-19T02:48:36;21.20;99.90
52024;DHT22;38038;45.922;13.604;2023-09-19T02:51:02;21.30;99.90
52024;DHT22;38038;45.922;13.604;2023-09-19T02:53:31;21.20;99.90
52024;DHT22;38038;45.922;13.604;2023-09-19T02:55:57;21.10;99.90
52024;DHT22;38038;45.922;13.604;2023-09-19T02:58:24;21.20;99.90
52024;DHT22;38038;45.922;13.604;2023-09-19T03:00:50;21.10;99.90
52024;DHT22;38038;45.922;13.604;2023-09-19T03:03:17;21.20;99.90
52024;DHT22;38038;45.922;13.604;2023-09-19T03:05:43;21.10;99.90
52024;DHT22;38038;45.922;13.604;2023-09-19T03:08:13;21.10;99.90
52024;DHT22;38038;45.922;13.604;2023-09-19T03:10:42;21.00;99.90
52024;DHT22;38038;45.922;13.604;2023-09-19T03:13:08;21.00;99.90
52024;DHT22;38038;45.922;13.604;2023-09-19T03:15:35;21.00;99.90
52024;DHT22;38038;45.922;13.604;2023-09-19T03:18:04;21.00;99.90
52024;DHT22;38038;45.922;13.604;2023-09-19T03:20:30;21.00;99.90
52024;DHT22;38038;45.922;13.604;2023-09-19T03:22:56;21.00;99.90
52024;DHT22;38038;45.922;13.604;2023-09-19T03:25:22;21.00;99.90
52024;DHT22;38038;45.922;13.604;2023-09-19T03:27:48;20.90;99.90
52024;DHT22;38038;45.922;13.604;2023-09-19T03:30:14;20.90;99.90
52024;DHT22;38038;45.922;13.604;2023-09-19T03:32:46;20.90;99.90
52024;DHT22;38038;45.922;13.604;2023-09-19T03:35:13;20.90;99.90
52024;DHT22;38038;45.922;13.604;2023-09-19T03:37:40;20.90;99.90
52024;DHT22;38038;45.922;13.604;2023-09-19T03:40:07;20.90;99.90
52024;DHT22;38038;45.922;13.604;2023-09-19T03:42:33;20.80;99.90
52024;DHT22;38038;45.922;13.604;2023-09-19T03:45:01;20.80;99.90
52024;DHT22;38038;45.922;13.604;2023-09-19T03:47:29;20.80;99.90
52024;DHT22;38038;45.922;13.604;2023-09-19T03:49:55;20.70;99.90
52024;DHT22;38038;45.922;13.604;2023-09-19T03:52:21;20.70;99.90
52024;DHT22;38038;45.922;13.604;2023-09-19T03:54:46;20.60;99.90
52024;DHT22;38038;45.922;13.604;2023-09-19T03:57:12;20.70;99.90
52024;DHT22;38038;45.922;13.604;2023-09-19T03:59:41;20.70;99.90
52024;DHT22;38038;45.922;13.604;2023-09-19T04:02:08;20.70;99.90
52024;DHT22;38038;45.922;13.604;2023-09-19T04:04:37;20.70;99.90
52024;DHT22;38038;45.922;13.604;2023-09-19T04:07:03;20.70;99.90
52024;DHT22;38038;45.922;13.604;2023-09-19T04:09:29;20.80;99.90
52024;DHT22;38038;45.922;13.604;2023-09-19T04:11:54;20.80;99.90
52024;DHT22;38038;45.922;13.604;2023-09-19T04:14:20;20.80;99.90
52024;DHT22;38038;45.922;13.604;2023-09-19T04:16:46;20.70;99.90
52024;DHT22;38038;45.922;13.604;2023-09-19T04:19:12;20.80;99.90
52024;DHT22;38038;45.922;13.604;2023-09-19T04:21:38;20.80;99.90
52024;DHT22;38038;45.922;13.604;2023-09-19T04:24:04;20.80;99.90
52024;DHT22;38038;45.922;13.604;2023-09-19T04:26:29;20.80;99.90
52024;DHT22;38038;45.922;13.604;2023-09-19T04:28:56;20.70;99.90
52024;DHT22;38038;45.922;13.604;2023-09-19T04:31:22;20.80;99.90
52024;DHT22;38038;45.922;13.604;2023-09-19T04:33:47;20.80;99.90
52024;DHT22;38038;45.922;13.604;2023-09-19T04:36:13;20.70;99.90
52024;DHT22;38038;45.922;13.604;2023-09-19T04:38:39;20.70;99.90
52024;DHT22;38038;45.922;13.604;2023-09-19T04:41:05;20.70;99.90
52024;DHT22;38038;45.922;13.604;2023-09-19T04:43:31;20.70;99.90
52024;DHT22;38038;45.922;13.604;2023-09-19T04:45:57;20.70;99.90
52024;DHT22;38038;45.922;13.604;2023-09-19T04:48:25;20.70;99.90
52024;DHT22;38038;45.922;13.604;2023-09-19T04:50:51;20.70;99.90
52024;DHT22;38038;45.922;13.604;2023-09-19T04:53:18;20.60;99.90
52024;DHT22;38038;45.922;13.604;2023-09-19T04:55:49;20.60;99.90
52024;DHT22;38038;45.922;13.604;2023-09-19T04:58:15;20.60;99.90
52024;DHT22;38038;45.922;13.604;2023-09-19T05:00:40;20.60;99.90
52024;DHT22;38038;45.922;13.604;2023-09-19T05:03:06;20.70;99.90
52024;DHT22;38038;45.922;13.604;2023-09-19T05:05:34;20.80;99.90
52024;DHT22;38038;45.922;13.604;2023-09-19T05:08:00;20.80;99.90
52024;DHT22;38038;45.922;13.604;2023-09-19T05:10:26;20.70;99.90
52024;DHT22;38038;45.922;13.604;2023-09-19T05:12:55;20.60;99.90
52024;DHT22;38038;45.922;13.604;2023-09-19T05:15:20;20.50;99.90
52024;DHT22;38038;45.922;13.604;2023-09-19T05:17:53;20.40;99.90
52024;DHT22;38038;45.922;13.604;2023-09-19T05:20:21;20.40;99.90
52024;DHT22;38038;45.922;13.604;2023-09-19T05:23:05;20.30;99.90
52024;DHT22;38038;45.922;13.604;2023-09-19T05:25:35;20.30;99.90
52024;DHT22;38038;45.922;13.604;2023-09-19T05:28:05;20.20;99.90
52024;DHT22;38038;45.922;13.604;2023-09-19T05:30:32;20.20;99.90
52024;DHT22;38038;45.922;13.604;2023-09-19T05:32:58;20.20;99.90
52024;DHT22;38038;45.922;13.604;2023-09-19T05:35:24;20.30;99.90
52024;DHT22;38038;45.922;13.604;2023-09-19T05:37:51;20.40;99.90
52024;DHT22;38038;45.922;13.604;2023-09-19T05:40:18;20.50;99.90
52024;DHT22;38038;45.922;13.604;2023-09-19T07:51:51;25.70;99.90
52024;DHT22;38038;45.922;13.604;2023-09-19T07:54:20;25.50;99.90
52024;DHT22;38038;45.922;13.604;2023-09-19T07:56:46;25.50;99.90
52024;DHT22;38038;45.922;13.604;2023-09-19T07:59:12;25.50;99.90
52024;DHT22;38038;45.922;13.604;2023-09-19T08:01:39;25.30;99.90
52024;DHT22;38038;45.922;13.604;2023-09-19T08:04:07;25.40;99.90
52024;DHT22;38038;45.922;13.604;2023-09-19T08:06:33;25.40;99.90
52024;DHT22;38038;45.922;13.604;2023-09-19T08:09:05;25.20;99.90
52024;DHT22;38038;45.922;13.604;2023-09-19T08:11:36;25.00;99.90
52024;DHT22;38038;45.922;13.604;2023-09-19T08:14:02;24.70;99.90
52024;DHT22;38038;45.922;13.604;2023-09-19T08:16:31;24.60;99.90
52024;DHT22;38038;45.922;13.604;2023-09-19T08:18:57;24.50;99.90
52024;DHT22;38038;45.922;13.604;2023-09-19T08:21:23;24.40;99.90
52024;DHT22;38038;45.922;13.604;2023-09-19T08:23:50;24.30;99.90
52024;DHT22;38038;45.922;13.604;2023-09-19T08:26:15;24.00;99.90
52024;DHT22;38038;45.922;13.604;2023-09-19T08:28:42;23.90;99.90
52024;DHT22;38038;45.922;13.604;2023-09-19T08:31:08;23.40;99.90
52024;DHT22;38038;45.922;13.604;2023-09-19T08:33:35;23.20;99.90
52024;DHT22;38038;45.922;13.604;2023-09-19T08:36:06;23.30;99.90
52024;DHT22;38038;45.922;13.604;2023-09-19T08:38:33;23.10;99.90
52024;DHT22;38038;45.922;13.604;2023-09-19T08:41:00;22.80;99.90
52024;DHT22;38038;45.922;13.604;2023-09-19T08:43:27;22.60;99.90
52024;DHT22;38038;45.922;13.604;2023-09-19T08:46:13;22.70;99.90
52024;DHT22;38038;45.922;13.604;2023-09-19T08:48:46;22.90;99.90
52024;DHT22;38038;45.922;13.604;2023-09-19T08:51:21;23.00;99.90
52024;DHT22;38038;45.922;13.604;2023-09-19T08:53:58;22.90;99.90
52024;DHT22;38038;45.922;13.604;2023-09-19T08:56:29;22.90;99.90
52024;DHT22;38038;45.922;13.604;2023-09-19T08:59:03;22.90;99.90
52024;DHT22;38038;45.922;13.604;2023-09-19T09:01:29;22.90;99.90
52024;DHT22;38038;45.922;13.604;2023-09-19T09:03:58;22.70;99.90
52024;DHT22;38038;45.922;13.604;2023-09-19T09:06:25;22.90;99.90
52024;DHT22;38038;45.922;13.604;2023-09-19T09:08:53;23.00;99.90
52024;DHT22;38038;45.922;13.604;2023-09-19T09:11:20;22.60;99.90
52024;DHT22;38038;45.922;13.604;2023-09-19T09:13:48;22.50;99.90
52024;DHT22;38038;45.922;13.604;2023-09-19T09:16:14;22.30;99.90
52024;DHT22;38038;45.922;13.604;2023-09-19T09:18:45;22.20;99.90
52024;DHT22;38038;45.922;13.604;2023-09-19T09:21:11;22.00;99.90
52024;DHT22;38038;45.922;13.604;2023-09-19T09:23:40;21.90;99.90
52024;DHT22;38038;45.922;13.604;2023-09-19T09:26:05;21.80;99.90
52024;DHT22;38038;45.922;13.604;2023-09-19T09:28:33;21.40;99.90
52024;DHT22;38038;45.922;13.604;2023-09-19T09:31:01;21.40;99.90
52024;DHT22;38038;45.922;13.604;2023-09-19T09:33:34;21.00;99.90
52024;DHT22;38038;45.922;13.604;2023-09-19T09:36:01;20.70;99.90
52024;DHT22;38038;45.922;13.604;2023-09-19T09:38:29;20.40;99.90
52024;DHT22;38038;45.922;13.604;2023-09-19T09:40:59;20.10;99.90
52024;DHT22;38038;45.922;13.604;2023-09-19T09:43:33;19.90;99.90
52024;DHT22;38038;45.922;13.604;2023-09-19T09:46:12;19.80;99.90
52024;DHT22;38038;45.922;13.604;2023-09-19T09:49:02;19.90;99.90
52024;DHT22;38038;45.922;13.604;2023-09-19T09:51:48;19.90;99.90
52024;DHT22;38038;45.922;13.604;2023-09-19T09:54:24;19.80;99.90
52024;DHT22;38038;45.922;13.604;2023-09-19T09:57:00;19.60;99.90
52024;DHT22;38038;45.922;13.604;2023-09-19T09:59:55;19.30;99.90
52024;DHT22;38038;45.922;13.604;2023-09-19T10:02:35;19.40;99.90
52024;DHT22;38038;45.922;13.604;2023-09-19T10:05:19;19.40;99.90
52024;DHT22;38038;45.922;13.604;2023-09-19T10:07:55;19.50;99.90
52024;DHT22;38038;45.922;13.604;2023-09-19T10:10:38;19.50;99.90
52024;DHT22;38038;45.922;13.604;2023-09-19T10:13:08;19.50;99.90
52024;DHT22;38038;45.922;13.604;2023-09-19T10:15:38;19.60;99.90
52024;DHT22;38038;45.922;13.604;2023-09-19T10:18:05;19.60;99.90
52024;DHT22;38038;45.922;13.604;2023-09-19T10:20:34;19.70;99.90
52024;DHT22;38038;45.922;13.604;2023-09-19T10:23:12;19.80;99.90
52024;DHT22;38038;45.922;13.604;2023-09-19T10:25:43;19.90;99.90
52024;DHT22;38038;45.922;13.604;2023-09-19T10:28:12;20.10;99.90
52024;DHT22;38038;45.922;13.604;2023-09-19T10:30:46;20.20;99.90
52024;DHT22;38038;45.922;13.604;2023-09-19T10:33:17;20.30;99.90
52024;DHT22;38038;45.922;13.604;2023-09-19T10:35:47;20.40;99.90
52024;DHT22;38038;45.922;13.604;2023-09-19T10:38:17;20.50;99.90
52024;DHT22;38038;45.922;13.604;2023-09-19T10:40:44;20.70;99.90
52024;DHT22;38038;45.922;13.604;2023-09-19T10:43:16;20.80;99.90
52024;DHT22;38038;45.922;13.604;2023-09-19T10:45:47;20.80;99.90
52024;DHT22;38038;45.922;13.604;2023-09-19T10:48:16;20.80;99.90
52024;DHT22;38038;45.922;13.604;2023-09-19T10:51:12;21.00;99.90
52024;DHT22;38038;45.922;13.604;2023-09-19T10:53:56;21.20;99.90
52024;DHT22;38038;45.922;13.604;2023-09-19T10:56:27;21.40;99.90
52024;DHT22;38038;45.922;13.604;2023-09-19T10:59:15;21.70;99.90
52024;DHT22;38038;45.922;13.604;2023-09-19T11:01:44;21.90;99.90
52024;DHT22;38038;45.922;13.604;2023-09-19T11:04:28;21.80;99.90
52024;DHT22;38038;45.922;13.604;2023-09-19T11:07:08;21.80;99.90
52024;DHT22;38038;45.922;13.604;2023-09-19T11:09:55;21.80;99.90
52024;DHT22;38038;45.922;13.604;2023-09-19T11:14:56;21.50;99.90
52024;DHT22;38038;45.922;13.604;2023-09-19T11:17:36;21.60;99.90
52024;DHT22;38038;45.922;13.604;2023-09-19T11:30:44;22.30;99.90
52024;DHT22;38038;45.922;13.604;2023-09-19T11:36:15;22.80;99.90
52024;DHT22;38038;45.922;13.604;2023-09-19T11:49:26;24.00;99.90
52024;DHT22;38038;45.922;13.604;2023-09-19T11:51:58;24.20;99.90
52024;DHT22;38038;45.922;13.604;2023-09-19T11:54:31;24.30;99.90
52024;DHT22;38038;45.922;13.604;2023-09-19T11:57:00;24.50;99.90
52024;DHT22;38038;45.922;13.604;2023-09-19T11:59:27;24.60;99.90
52024;DHT22;38038;45.922;13.604;2023-09-19T12:01:56;24.70;99.90
52024;DHT22;38038;45.922;13.604;2023-09-19T12:04:41;24.80;99.90
52024;DHT22;38038;45.922;13.604;2023-09-19T12:07:10;24.90;99.90
52024;DHT22;38038;45.922;13.604;2023-09-19T12:09:44;25.10;99.90
52024;DHT22;38038;45.922;13.604;2023-09-19T12:12:23;25.30;99.90
52024;DHT22;38038;45.922;13.604;2023-09-19T12:14:53;25.50;99.90
52024;DHT22;38038;45.922;13.604;2023-09-19T12:17:19;25.50;99.90
52024;DHT22;38038;45.922;13.604;2023-09-19T12:19:56;25.60;99.90
52024;DHT22;38038;45.922;13.604;2023-09-19T12:22:22;25.50;99.90
52024;DHT22;38038;45.922;13.604;2023-09-19T12:24:48;25.50;99.90
52024;DHT22;38038;45.922;13.604;2023-09-19T12:27:14;25.60;99.90
52024;DHT22;38038;45.922;13.604;2023-09-19T12:29:45;25.70;99.90
52024;DHT22;38038;45.922;13.604;2023-09-19T12:32:11;25.70;99.90
52024;DHT22;38038;45.922;13.604;2023-09-19T12:34:38;25.70;99.90
52024;DHT22;38038;45.922;13.604;2023-09-19T12:37:17;25.90;99.90
52024;DHT22;38038;45.922;13.604;2023-09-19T12:39:52;25.80;99.90
52024;DHT22;38038;45.922;13.604;2023-09-19T12:42:24;25.70;99.90
52024;DHT22;38038;45.922;13.604;2023-09-19T12:44:54;25.50;99.60
52024;DHT22;38038;45.922;13.604;2023-09-19T12:47:27;25.40;99.90
52024;DHT22;38038;45.922;13.604;2023-09-19T12:50:12;25.40;99.90
52024;DHT22;38038;45.922;13.604;2023-09-19T12:52:49;25.30;99.90
52024;DHT22;38038;45.922;13.604;2023-09-19T12:55:23;25.40;99.90
52024;DHT22;38038;45.922;13.604;2023-09-19T12:58:09;25.40;99.90
52024;DHT22;38038;45.922;13.604;2023-09-19T13:00:41;25.50;99.90
52024;DHT22;38038;45.922;13.604;2023-09-19T13:03:14;25.50;99.90
52024;DHT22;38038;45.922;13.604;2023-09-19T13:05:54;25.60;99.90
52024;DHT22;38038;45.922;13.604;2023-09-19T13:08:31;25.70;99.90
52024;DHT22;38038;45.922;13.604;2023-09-19T13:11:16;25.80;99.80
52024;DHT22;38038;45.922;13.604;2023-09-19T13:14:14;25.90;99.00
52024;DHT22;38038;45.922;13.604;2023-09-19T13:17:15;26.10;97.60
52024;DHT22;38038;45.922;13.604;2023-09-19T13:19:49;26.10;98.60
52024;DHT22;38038;45.922;13.604;2023-09-19T13:22:37;26.10;97.70
52024;DHT22;38038;45.922;13.604;2023-09-19T13:25:13;26.00;96.90
52024;DHT22;38038;45.922;13.604;2023-09-19T13:28:00;26.10;97.30
52024;DHT22;38038;45.922;13.604;2023-09-19T13:30:30;26.00;97.10
52024;DHT22;38038;45.922;13.604;2023-09-19T13:33:10;25.80;97.10
52024;DHT22;38038;45.922;13.604;2023-09-19T13:35:37;25.80;97.30
52024;DHT22;38038;45.922;13.604;2023-09-19T13:38:05;25.90;98.00
52024;DHT22;38038;45.922;13.604;2023-09-19T13:40:33;26.00;98.30
52024;DHT22;38038;45.922;13.604;2023-09-19T13:43:01;26.10;98.20
52024;DHT22;38038;45.922;13.604;2023-09-19T13:45:26;26.10;97.80
52024;DHT22;38038;45.922;13.604;2023-09-19T13:47:52;26.10;97.70
52024;DHT22;38038;45.922;13.604;2023-09-19T13:50:20;26.20;97.50
52024;DHT22;38038;45.922;13.604;2023-09-19T13:52:50;26.20;97.00
52024;DHT22;38038;45.922;13.604;2023-09-19T13:55:17;26.20;96.60
52024;DHT22;38038;45.922;13.604;2023-09-19T13:57:46;26.20;96.50
52024;DHT22;38038;45.922;13.604;2023-09-19T14:00:13;26.20;96.40
52024;DHT22;38038;45.922;13.604;2023-09-19T14:02:41;26.20;97.20
52024;DHT22;38038;45.922;13.604;2023-09-19T14:05:10;26.20;97.00
52024;DHT22;38038;45.922;13.604;2023-09-19T14:07:38;26.10;96.60
52024;DHT22;38038;45.922;13.604;2023-09-19T14:10:04;26.10;96.60
52024;DHT22;38038;45.922;13.604;2023-09-19T14:12:34;26.10;97.30
52024;DHT22;38038;45.922;13.604;2023-09-19T14:15:00;26.20;98.00
52024;DHT22;38038;45.922;13.604;2023-09-19T14:17:26;26.10;97.70
52024;DHT22;38038;45.922;13.604;2023-09-19T14:19:52;26.10;97.40
52024;DHT22;38038;45.922;13.604;2023-09-19T14:22:18;26.00;97.00
52024;DHT22;38038;45.922;13.604;2023-09-19T14:24:44;25.90;97.80
52024;DHT22;38038;45.922;13.604;2023-09-19T14:27:09;25.80;98.10
52024;DHT22;38038;45.922;13.604;2023-09-19T14:29:36;25.70;98.00
52024;DHT22;38038;45.922;13.604;2023-09-19T14:32:02;25.60;98.80
52024;DHT22;38038;45.922;13.604;2023-09-19T14:34:28;25.50;99.30
52024;DHT22;38038;45.922;13.604;2023-09-19T14:36:53;25.30;99.00
52024;DHT22;38038;45.922;13.604;2023-09-19T14:39:22;25.30;98.90
52024;DHT22;38038;45.922;13.604;2023-09-19T14:41:49;25.40;99.40
52024;DHT22;38038;45.922;13.604;2023-09-19T14:44:14;25.40;99.00
52024;DHT22;38038;45.922;13.604;2023-09-19T14:46:43;25.40;98.60
52024;DHT22;38038;45.922;13.604;2023-09-19T14:49:11;25.40;99.10
52024;DHT22;38038;45.922;13.604;2023-09-19T14:51:38;25.30;99.10
52024;DHT22;38038;45.922;13.604;2023-09-19T14:54:07;25.20;99.20
52024;DHT22;38038;45.922;13.604;2023-09-19T14:56:33;25.20;98.90
52024;DHT22;38038;45.922;13.604;2023-09-19T14:58:59;25.30;99.10
52024;DHT22;38038;45.922;13.604;2023-09-19T15:01:25;25.30;99.50
52024;DHT22;38038;45.922;13.604;2023-09-19T15:03:51;25.40;99.70
52024;DHT22;38038;45.922;13.604;2023-09-19T15:06:17;25.50;99.00
52024;DHT22;38038;45.922;13.604;2023-09-19T15:08:46;25.60;99.80
52024;DHT22;38038;45.922;13.604;2023-09-19T15:11:19;25.70;98.70
52024;DHT22;38038;45.922;13.604;2023-09-19T15:13:48;25.70;98.60
52024;DHT22;38038;45.922;13.604;2023-09-19T15:16:15;25.80;98.80
52024;DHT22;38038;45.922;13.604;2023-09-19T15:18:43;25.80;99.20
52024;DHT22;38038;45.922;13.604;2023-09-19T15:21:11;25.80;99.00
52024;DHT22;38038;45.922;13.604;2023-09-19T15:23:38;25.90;99.00
52024;DHT22;38038;45.922;13.604;2023-09-19T15:26:05;25.80;99.20
52024;DHT22;38038;45.922;13.604;2023-09-19T15:28:31;25.70;99.50
52024;DHT22;38038;45.922;13.604;2023-09-19T15:31:07;25.70;99.70
52024;DHT22;38038;45.922;13.604;2023-09-19T15:33:34;25.70;99.70
52024;DHT22;38038;45.922;13.604;2023-09-19T15:36:12;25.60;99.90
52024;DHT22;38038;45.922;13.604;2023-09-19T15:41:21;25.50;99.80
52024;DHT22;38038;45.922;13.604;2023-09-19T15:43:47;25.50;99.80
52024;DHT22;38038;45.922;13.604;2023-09-19T15:46:13;25.50;99.90
52024;DHT22;38038;45.922;13.604;2023-09-19T15:48:42;25.40;99.90
52024;DHT22;38038;45.922;13.604;2023-09-19T15:51:08;25.40;99.90
52024;DHT22;38038;45.922;13.604;2023-09-19T15:53:57;25.30;99.90
52024;DHT22;38038;45.922;13.604;2023-09-19T15:56:25;25.30;99.90
52024;DHT22;38038;45.922;13.604;2023-09-19T15:58:52;25.20;99.90
52024;DHT22;38038;45.922;13.604;2023-09-19T16:01:19;25.20;99.90
52024;DHT22;38038;45.922;13.604;2023-09-19T16:03:50;25.10;99.90
52024;DHT22;38038;45.922;13.604;2023-09-19T16:06:25;25.10;99.90
52024;DHT22;38038;45.922;13.604;2023-09-19T16:08:56;25.00;99.90
52024;DHT22;38038;45.922;13.604;2023-09-19T16:11:24;24.80;99.90
52024;DHT22;38038;45.922;13.604;2023-09-19T16:13:51;24.80;99.90
52024;DHT22;38038;45.922;13.604;2023-09-19T16:16:18;24.80;99.90
52024;DHT22;38038;45.922;13.604;2023-09-19T16:18:47;24.80;99.90
52024;DHT22;38038;45.922;13.604;2023-09-19T16:21:13;24.80;99.90
52024;DHT22;38038;45.922;13.604;2023-09-19T16:23:39;24.80;99.90
52024;DHT22;38038;45.922;13.604;2023-09-19T16:26:07;24.80;99.90
52024;DHT22;38038;45.922;13.604;2023-09-19T16:28:35;24.70;99.90
52024;DHT22;38038;45.922;13.604;2023-09-19T16:31:05;24.70;99.90
52024;DHT22;38038;45.922;13.604;2023-09-19T16:33:32;24.60;99.90
52024;DHT22;38038;45.922;13.604;2023-09-19T16:35:59;24.50;99.90
52024;DHT22;38038;45.922;13.604;2023-09-19T16:38:26;24.40;99.90
52024;DHT22;38038;45.922;13.604;2023-09-19T16:40:56;24.40;99.90
52024;DHT22;38038;45.922;13.604;2023-09-19T16:43:24;24.30;99.90
52024;DHT22;38038;45.922;13.604;2023-09-19T16:45:54;24.20;99.90
52024;DHT22;38038;45.922;13.604;2023-09-19T16:48:24;24.10;99.90
52024;DHT22;38038;45.922;13.604;2023-09-19T16:50:51;24.10;99.90
52024;DHT22;38038;45.922;13.604;2023-09-19T16:53:18;24.10;99.90
52024;DHT22;38038;45.922;13.604;2023-09-19T16:55:47;24.00;99.90
52024;DHT22;38038;45.922;13.604;2023-09-19T16:58:14;24.00;99.90
52024;DHT22;38038;45.922;13.604;2023-09-19T17:00:40;23.90;99.90
52024;DHT22;38038;45.922;13.604;2023-09-19T17:03:06;23.90;99.90
52024;DHT22;38038;45.922;13.604;2023-09-19T17:05:32;23.80;99.90
52024;DHT22;38038;45.922;13.604;2023-09-19T17:07:58;23.80;99.90
52024;DHT22;38038;45.922;13.604;2023-09-19T17:10:33;23.80;99.90
52024;DHT22;38038;45.922;13.604;2023-09-19T17:13:00;23.70;99.90
52024;DHT22;38038;45.922;13.604;2023-09-19T17:15:26;23.60;99.90
52024;DHT22;38038;45.922;13.604;2023-09-19T17:17:52;23.60;99.90
52024;DHT22;38038;45.922;13.604;2023-09-19T17:20:18;23.60;99.90
52024;DHT22;38038;45.922;13.604;2023-09-19T17:22:44;23.50;99.90
52024;DHT22;38038;45.922;13.604;2023-09-19T17:25:10;23.50;99.90
52024;DHT22;38038;45.922;13.604;2023-09-19T17:27:39;23.40;99.90
52024;DHT22;38038;45.922;13.604;2023-09-19T17:30:09;23.40;99.90
52024;DHT22;38038;45.922;13.604;2023-09-19T17:32:44;23.30;99.90
52024;DHT22;38038;45.922;13.604;2023-09-19T17:35:12;23.30;99.90
52024;DHT22;38038;45.922;13.604;2023-09-19T17:37:40;23.20;99.90
52024;DHT22;38038;45.922;13.604;2023-09-19T17:40:10;23.10;99.90
52024;DHT22;38038;45.922;13.604;2023-09-19T17:42:42;23.10;99.90
52024;DHT22;38038;45.922;13.604;2023-09-19T17:45:09;23.10;99.90
52024;DHT22;38038;45.922;13.604;2023-09-19T17:47:42;22.90;99.90
52024;DHT22;38038;45.922;13.604;2023-09-19T17:50:09;22.80;99.90
52024;DHT22;38038;45.922;13.604;2023-09-19T17:52:44;22.90;99.90
52024;DHT22;38038;45.922;13.604;2023-09-19T17:55:13;22.80;99.90
52024;DHT22;38038;45.922;13.604;2023-09-19T17:57:42;22.70;99.90
52024;DHT22;38038;45.922;13.604;2023-09-19T18:00:09;22.70;99.90
52024;DHT22;38038;45.922;13.604;2023-09-19T18:02:36;22.60;99.90
52024;DHT22;38038;45.922;13.604;2023-09-19T18:05:04;22.60;99.90
52024;DHT22;38038;45.922;13.604;2023-09-19T18:07:30;22.60;99.90
52024;DHT22;38038;45.922;13.604;2023-09-19T18:09:57;22.60;99.90
52024;DHT22;38038;45.922;13.604;2023-09-19T18:12:25;22.50;99.90
52024;DHT22;38038;45.922;13.604;2023-09-19T18:14:51;22.50;99.90
52024;DHT22;38038;45.922;13.604;2023-09-19T18:17:17;22.50;99.90
52024;DHT22;38038;45.922;13.604;2023-09-19T18:19:43;22.60;99.90
52024;DHT22;38038;45.922;13.604;2023-09-19T18:22:08;22.70;99.90
52024;DHT22;38038;45.922;13.604;2023-09-19T18:24:37;22.60;99.90